sensor_id;sensor_type;location;lat;lon;timestamp;pressure;altitude;pressure_sealevel;temperature;humidity
48027;BME280;50714;49.208;5.364;2023-04-01T00:09:02;97945.53;;;10.25;79.73
48027;BME280;50714;49.208;5.364;2023-04-01T00:19:02;97939.69;;;10.28;80.49
48027;BME280;50714;49.208;5.364;2023-04-01T00:29:03;97940.88;;;10.20;81.47
48027;BME280;50714;49.208;5.364;2023-04-01T00:39:03;97924.31;;;10.17;82.36
48027;BME280;50714;49.208;5.364;2023-04-01T00:49:03;97934.31;;;10.05;82.91
48027;BME280;50714;49.208;5.364;2023-04-01T00:59:08;97934.66;;;10.08;83.26
48027;BME280;50714;49.208;5.364;2023-04-01T01:19:42;97923.91;;;9.97;84.47
48027;BME280;50714;49.208;5.364;2023-04-01T01:40:15;97917.09;;;9.94;82.96
48027;BME280;50714;49.208;5.364;2023-04-01T01:50:16;97908.31;;;9.99;83.74
48027;BME280;50714;49.208;5.364;2023-04-01T02:00:17;97911.13;;;9.92;84.80
48027;BME280;50714;49.208;5.364;2023-04-01T02:10:21;97905.78;;;9.80;86.20
48027;BME280;50714;49.208;5.364;2023-04-01T02:20:24;97905.66;;;9.75;87.35
48027;BME280;50714;49.208;5.364;2023-04-01T02:30:27;97896.34;;;9.66;88.63
48027;BME280;50714;49.208;5.364;2023-04-01T02:40:29;97895.16;;;9.62;89.33
48027;BME280;50714;49.208;5.364;2023-04-01T02:50:29;97899.38;;;9.58;90.41
48027;BME280;50714;49.208;5.364;2023-04-01T03:00:30;97883.69;;;9.55;91.25
48027;BME280;50714;49.208;5.364;2023-04-01T03:10:30;97890.72;;;9.56;91.77
48027;BME280;50714;49.208;5.364;2023-04-01T03:20:30;97873.38;;;9.52;92.24
48027;BME280;50714;49.208;5.364;2023-04-01T03:30:31;97883.81;;;9.48;93.22
48027;BME280;50714;49.208;5.364;2023-04-01T03:40:31;97864.94;;;9.48;93.73
48027;BME280;50714;49.208;5.364;2023-04-01T03:50:34;97862.63;;;9.40;95.20
48027;BME280;50714;49.208;5.364;2023-04-01T04:00:34;97864.97;;;9.37;95.78
48027;BME280;50714;49.208;5.364;2023-04-01T04:10:35;97874.69;;;9.38;96.71
48027;BME280;50714;49.208;5.364;2023-04-01T04:20:36;97869.78;;;9.35;97.34
48027;BME280;50714;49.208;5.364;2023-04-01T04:30:36;97878.66;;;9.35;97.60
48027;BME280;50714;49.208;5.364;2023-04-01T04:40:37;97872.00;;;9.38;98.35
48027;BME280;50714;49.208;5.364;2023-04-01T04:50:39;97866.25;;;9.34;98.64
48027;BME280;50714;49.208;5.364;2023-04-01T05:00:40;97870.72;;;9.40;98.49
48027;BME280;50714;49.208;5.364;2023-04-01T05:10:41;97869.06;;;9.39;98.78
48027;BME280;50714;49.208;5.364;2023-04-01T05:20:52;97892.25;;;9.40;99.28
48027;BME280;50714;49.208;5.364;2023-04-01T05:30:53;97912.38;;;9.38;99.17
48027;BME280;50714;49.208;5.364;2023-04-01T05:40:59;97910.06;;;9.41;99.39
48027;BME280;50714;49.208;5.364;2023-04-01T05:51:00;97909.59;;;9.44;99.41
48027;BME280;50714;49.208;5.364;2023-04-01T06:01:06;97932.50;;;9.47;99.12
48027;BME280;50714;49.208;5.364;2023-04-01T06:11:24;97933.09;;;9.49;100.00
48027;BME280;50714;49.208;5.364;2023-04-01T06:53:09;97972.91;;;9.70;100.00
48027;BME280;50714;49.208;5.364;2023-04-01T07:03:22;97980.75;;;9.72;99.94
48027;BME280;50714;49.208;5.364;2023-04-01T07:13:53;97991.19;;;9.80;100.00
48027;BME280;50714;49.208;5.364;2023-04-01T07:23:57;97999.59;;;9.95;98.41
48027;BME280;50714;49.208;5.364;2023-04-01T07:34:11;98006.97;;;10.00;98.10
48027;BME280;50714;49.208;5.364;2023-04-01T08:14:52;98052.94;;;10.28;98.90
48027;BME280;50714;49.208;5.364;2023-04-01T08:24:57;98055.97;;;10.32;98.32
48027;BME280;50714;49.208;5.364;2023-04-01T08:35:37;98068.00;;;10.41;100.00
48027;BME280;50714;49.208;5.364;2023-04-01T08:55:51;98081.72;;;10.51;98.15
48027;BME280;50714;49.208;5.364;2023-04-01T13:27:30;98273.47;;;10.49;100.00
48027;BME280;50714;49.208;5.364;2023-04-01T14:08:38;98297.31;;;10.87;96.11
48027;BME280;50714;49.208;5.364;2023-04-01T14:39:33;98311.09;;;10.44;92.33
48027;BME280;50714;49.208;5.364;2023-04-01T14:49:39;98307.00;;;10.42;92.89
48027;BME280;50714;49.208;5.364;2023-04-01T14:59:48;98295.41;;;10.65;93.49
48027;BME280;50714;49.208;5.364;2023-04-01T15:30:21;98329.25;;;11.02;91.88
48027;BME280;50714;49.208;5.364;2023-04-01T15:40:49;98337.81;;;10.99;90.24
48027;BME280;50714;49.208;5.364;2023-04-01T15:50:55;98344.16;;;10.93;90.57
48027;BME280;50714;49.208;5.364;2023-04-01T16:21:37;98354.22;;;10.74;92.71
48027;BME280;50714;49.208;5.364;2023-04-01T16:32:21;98361.13;;;10.70;92.35
48027;BME280;50714;49.208;5.364;2023-04-01T17:03:19;98369.84;;;10.42;93.87
48027;BME280;50714;49.208;5.364;2023-04-01T17:13:41;98371.09;;;10.28;95.65
48027;BME280;50714;49.208;5.364;2023-04-01T18:25:43;98439.03;;;10.00;95.71
48027;BME280;50714;49.208;5.364;2023-04-01T18:36:12;98453.06;;;9.90;96.46
48027;BME280;50714;49.208;5.364;2023-04-01T18:46:39;98469.06;;;9.85;97.30
48027;BME280;50714;49.208;5.364;2023-04-01T18:56:45;98485.28;;;9.79;98.18
48027;BME280;50714;49.208;5.364;2023-04-01T19:06:50;98504.50;;;9.64;99.24
48027;BME280;50714;49.208;5.364;2023-04-01T19:17:06;98514.91;;;9.61;99.78
48027;BME280;50714;49.208;5.364;2023-04-01T19:37:28;98521.00;;;9.49;100.00
48027;BME280;50714;49.208;5.364;2023-04-01T19:48:02;98533.81;;;9.54;100.00
48027;BME280;50714;49.208;5.364;2023-04-01T20:08:45;98551.94;;;9.40;100.00
48027;BME280;50714;49.208;5.364;2023-04-01T20:18:58;98570.41;;;9.37;99.42
48027;BME280;50714;49.208;5.364;2023-04-01T20:29:18;98583.88;;;9.37;99.58
48027;BME280;50714;49.208;5.364;2023-04-01T21:10:27;98631.75;;;9.28;98.16
48027;BME280;50714;49.208;5.364;2023-04-01T21:31:12;98645.03;;;9.23;98.16
48027;BME280;50714;49.208;5.364;2023-04-01T22:33:02;98673.97;;;8.96;100.00
48027;BME280;50714;49.208;5.364;2023-04-01T22:43:19;98677.50;;;8.90;99.68
48027;BME280;50714;49.208;5.364;2023-04-01T22:53:45;98682.06;;;8.83;99.98
48027;BME280;50714;49.208;5.364;2023-04-01T23:03:51;98681.44;;;8.81;100.00
48027;BME280;50714;49.208;5.364;2023-04-01T23:24:44;98689.53;;;8.81;100.00
48027;BME280;50714;49.208;5.364;2023-04-01T23:34:52;98699.25;;;8.82;100.00
48027;BME280;50714;49.208;5.364;2023-04-01T23:44:58;98718.34;;;8.74;100.00
48027;BME280;50714;49.208;5.364;2023-04-01T23:55:14;98730.94;;;8.73;100.00
